createdAt,value
2022-07-28T00:01:44.213Z,2.10
2022-07-28T00:06:27.746Z,4.43
2022-07-28T00:11:12.716Z,4.37
2022-07-28T00:15:56.423Z,4.40
2022-07-28T00:20:39.841Z,1.40
2022-07-28T00:25:23.390Z,4.73
2022-07-28T00:30:10.550Z,1.97
2022-07-28T00:34:54.606Z,4.17
2022-07-28T00:39:38.118Z,1.30
2022-07-28T00:44:21.756Z,2.70
2022-07-28T00:49:06.888Z,2.57
2022-07-28T00:53:50.819Z,3.53
2022-07-28T00:58:35.147Z,2.17
2022-07-28T01:03:19.498Z,3.93
2022-07-28T01:08:11.871Z,2.97
2022-07-28T01:13:07.577Z,2.20
2022-07-28T01:17:57.758Z,2.03
2022-07-28T01:22:51.917Z,2.53
2022-07-28T01:27:52.765Z,2.10
2022-07-28T01:32:42.903Z,3.23
2022-07-28T01:37:29.159Z,1.53
2022-07-28T01:42:15.805Z,3.67
2022-07-28T01:47:01.804Z,1.70
2022-07-28T01:51:49.336Z,5.07
2022-07-28T01:56:34.759Z,2.97
2022-07-28T02:01:20.656Z,3.00
2022-07-28T02:06:06.016Z,1.67
2022-07-28T02:11:09.703Z,2.27
2022-07-28T02:15:55.256Z,3.30
2022-07-28T02:20:40.630Z,1.90
2022-07-28T02:25:25.492Z,2.03
2022-07-28T02:30:18.744Z,3.70
2022-07-28T02:35:12.758Z,2.30
2022-07-28T02:40:00.209Z,4.50
2022-07-28T02:44:48.416Z,3.73
2022-07-28T02:49:36.348Z,4.17
2022-07-28T02:54:22.097Z,1.93
2022-07-28T02:59:09.233Z,2.20
2022-07-28T03:03:55.321Z,2.10
2022-07-28T03:08:40.954Z,3.40
2022-07-28T03:13:24.590Z,2.93
2022-07-28T03:18:09.046Z,2.80
2022-07-28T03:22:52.701Z,4.97
2022-07-28T03:27:41.230Z,4.00
2022-07-28T03:32:28.096Z,2.47
2022-07-28T03:37:17.589Z,3.37
2022-07-28T03:42:02.564Z,3.17
2022-07-28T03:46:48.328Z,2.93
2022-07-28T03:51:31.991Z,1.70
2022-07-28T03:56:15.775Z,4.07
2022-07-28T04:01:00.706Z,2.87
2022-07-28T04:05:46.164Z,2.93
2022-07-28T04:10:30.777Z,4.27
2022-07-28T04:15:15.357Z,1.50
2022-07-28T04:19:59.030Z,1.60
2022-07-28T04:24:44.189Z,2.53
2022-07-28T04:29:28.247Z,2.73
2022-07-28T04:34:12.129Z,3.60
2022-07-28T04:38:57.969Z,3.33
2022-07-28T04:43:43.619Z,2.70
2022-07-28T04:48:28.091Z,2.90
2022-07-28T04:53:12.429Z,3.30
2022-07-28T04:57:56.292Z,3.57
2022-07-28T05:02:42.444Z,3.30
2022-07-28T05:07:26.180Z,3.27
2022-07-28T05:12:10.626Z,2.57
2022-07-28T05:16:57.366Z,3.10
2022-07-28T05:21:43.161Z,2.97
2022-07-28T05:26:28.854Z,4.10
2022-07-28T05:31:12.763Z,3.93
2022-07-28T05:35:58.673Z,3.70
2022-07-28T05:40:43.870Z,4.80
2022-07-28T05:45:34.172Z,2.57
2022-07-28T05:50:19.347Z,2.63
2022-07-28T05:55:03.335Z,2.10
2022-07-28T05:59:51.001Z,6.47
2022-07-28T06:04:35.017Z,2.93
2022-07-28T06:09:19.010Z,3.47
2022-07-28T06:14:03.258Z,6.47
2022-07-28T06:18:48.836Z,3.83
2022-07-28T06:23:33.240Z,3.30
2022-07-28T06:28:19.002Z,2.73
2022-07-28T06:33:05.731Z,3.90
2022-07-28T06:37:53.072Z,3.83
2022-07-28T06:42:37.657Z,3.37
2022-07-28T06:47:21.764Z,3.10
2022-07-28T06:52:06.239Z,3.77
2022-07-28T06:57:17.516Z,2.97
2022-07-28T07:02:02.514Z,2.60
2022-07-28T07:06:46.294Z,2.47
2022-07-28T07:11:32.902Z,8.30
2022-07-28T07:16:18.333Z,3.80
2022-07-28T07:21:02.155Z,5.17
2022-07-28T07:25:45.970Z,10.13
2022-07-28T07:30:30.127Z,10.33
2022-07-28T07:35:15.047Z,12.80
2022-07-28T07:39:58.815Z,9.80
2022-07-28T07:44:50.180Z,18.60
2022-07-28T07:49:44.981Z,17.42
2022-07-28T07:54:32.771Z,11.93
2022-07-28T07:59:16.481Z,21.00
2022-07-28T08:04:01.266Z,13.95
2022-07-28T08:08:48.574Z,15.82
2022-07-28T08:13:33.759Z,16.40
2022-07-28T08:18:17.881Z,16.90
2022-07-28T08:23:01.595Z,13.38
2022-07-28T08:27:45.448Z,8.95
2022-07-28T08:32:32.433Z,11.88
2022-07-28T08:37:16.145Z,8.50
2022-07-28T08:42:05.140Z,7.70
2022-07-28T08:46:49.908Z,3.85
2022-07-28T08:51:36.334Z,3.38
2022-07-28T08:56:21.609Z,3.65
2022-07-28T09:01:07.009Z,3.35
2022-07-28T09:05:52.221Z,3.20
2022-07-28T09:10:40.641Z,3.80
2022-07-28T09:15:24.486Z,3.03
2022-07-28T09:20:11.275Z,2.13
2022-07-28T09:24:56.609Z,3.13
2022-07-28T09:29:43.234Z,3.58
2022-07-28T09:34:27.381Z,3.75
2022-07-28T09:39:11.459Z,3.35
2022-07-28T09:43:55.963Z,3.22
2022-07-28T09:48:56.800Z,5.25
2022-07-28T09:53:41.232Z,3.88
2022-07-28T09:58:26.906Z,3.05
2022-07-28T10:03:10.809Z,4.40
2022-07-28T10:07:56.084Z,4.15
2022-07-28T10:12:40.665Z,1.60
2022-07-28T10:17:30.419Z,4.35
2022-07-28T10:22:14.494Z,2.78
2022-07-28T10:27:03.049Z,2.80
2022-07-28T10:31:52.544Z,2.40
2022-07-28T10:36:37.033Z,3.58
2022-07-28T10:41:22.282Z,5.13
2022-07-28T10:46:10.715Z,3.03
2022-07-28T10:50:57.060Z,1.88
2022-07-28T10:55:50.149Z,1.65
2022-07-28T11:00:53.064Z,2.17
2022-07-28T11:05:41.954Z,2.33
2022-07-28T11:10:26.180Z,2.15
2022-07-28T11:15:28.278Z,5.53
2022-07-28T11:20:25.212Z,1.52
2022-07-28T11:25:22.413Z,1.10
2022-07-28T11:30:07.467Z,2.45
2022-07-28T11:35:11.705Z,3.78
2022-07-28T11:40:33.691Z,3.08
2022-07-28T11:45:26.476Z,3.45
2022-07-28T11:50:22.333Z,8.13
2022-07-28T11:55:06.921Z,1.77
2022-07-28T11:59:54.897Z,3.60
2022-07-28T12:04:39.380Z,1.67
2022-07-28T12:09:41.148Z,2.42
2022-07-28T12:14:26.664Z,3.75
2022-07-28T12:19:15.858Z,2.60
2022-07-28T12:23:59.719Z,2.22
2022-07-28T12:28:52.042Z,2.00
2022-07-28T12:33:36.038Z,2.88
2022-07-28T12:38:22.214Z,2.25
2022-07-28T12:43:05.975Z,2.10
2022-07-28T12:47:49.714Z,1.42
2022-07-28T12:52:33.282Z,2.60
2022-07-28T12:57:18.883Z,1.08
2022-07-28T13:02:03.145Z,2.97
2022-07-28T13:06:57.765Z,1.98
2022-07-28T13:11:47.512Z,3.25
2022-07-28T13:16:34.806Z,4.13
2022-07-28T13:21:38.685Z,2.72
2022-07-28T13:26:22.332Z,2.08
2022-07-28T13:31:06.278Z,3.40
2022-07-28T13:35:54.268Z,2.20
2022-07-28T13:40:37.894Z,3.40
2022-07-28T13:45:22.100Z,3.15
2022-07-28T13:50:09.790Z,2.50
2022-07-28T13:54:56.502Z,3.17
2022-07-28T13:59:40.726Z,5.97
2022-07-28T14:04:25.269Z,2.65
2022-07-28T14:09:12.027Z,2.15
2022-07-28T14:13:58.839Z,3.60
2022-07-28T14:18:42.714Z,4.10
2022-07-28T14:23:26.686Z,2.67
2022-07-28T14:28:10.435Z,4.07
2022-07-28T14:32:56.258Z,2.50
2022-07-28T14:38:15.726Z,2.95
2022-07-28T14:42:44.104Z,2.22
2022-07-28T14:47:45.152Z,3.25
2022-07-28T14:52:31.721Z,3.25
2022-07-28T14:57:15.746Z,3.45
2022-07-28T15:02:00.006Z,2.72
2022-07-28T15:06:43.808Z,2.90
2022-07-28T15:11:28.841Z,4.18
2022-07-28T15:16:12.729Z,2.30
2022-07-28T15:20:56.751Z,3.65
2022-07-28T15:25:46.542Z,2.67
2022-07-28T15:30:31.844Z,2.92
2022-07-28T15:35:18.481Z,3.72
2022-07-28T15:40:02.088Z,2.08
2022-07-28T15:44:47.524Z,3.63
2022-07-28T15:49:33.060Z,4.90
2022-07-28T15:54:41.701Z,4.00
2022-07-28T15:59:26.924Z,6.13
2022-07-28T16:04:33.907Z,6.40
2022-07-28T16:09:45.543Z,3.95
2022-07-28T16:14:34.580Z,4.60
2022-07-28T16:19:48.479Z,6.07
2022-07-28T16:24:35.685Z,4.22
2022-07-28T16:29:22.586Z,4.00
2022-07-28T16:34:06.654Z,3.90
2022-07-28T16:38:50.977Z,2.90
2022-07-28T16:43:41.795Z,3.58
2022-07-28T16:48:28.757Z,3.38
2022-07-28T16:53:13.219Z,10.43
2022-07-28T16:57:57.389Z,2.95
2022-07-28T17:02:43.167Z,2.28
2022-07-28T17:07:27.143Z,8.45
2022-07-28T17:12:13.760Z,7.35
2022-07-28T17:16:57.430Z,10.15
2022-07-28T17:21:46.051Z,3.60
2022-07-28T17:31:39.164Z,6.15
2022-07-28T17:36:25.065Z,3.50
2022-07-28T17:41:10.666Z,3.47
2022-07-28T17:45:56.013Z,2.22
2022-07-28T17:50:49.109Z,4.50
2022-07-28T17:55:40.772Z,4.88
2022-07-28T18:00:45.219Z,2.80
2022-07-28T18:05:29.043Z,5.95
2022-07-28T18:10:13.148Z,2.35
2022-07-28T18:14:59.674Z,7.53
2022-07-28T18:19:45.623Z,2.90
2022-07-28T18:24:29.744Z,2.47
2022-07-28T18:29:14.761Z,2.13
2022-07-28T18:33:58.684Z,1.73
2022-07-28T18:38:44.023Z,2.73
2022-07-28T18:43:30.254Z,3.03
2022-07-28T18:48:18.042Z,1.30
2022-07-28T18:53:05.841Z,3.50
2022-07-28T18:57:53.864Z,1.90
2022-07-28T19:02:39.021Z,3.23
2022-07-28T19:07:27.330Z,5.77
2022-07-28T19:12:11.962Z,8.07
2022-07-28T19:16:57.654Z,4.90
2022-07-28T19:21:43.378Z,3.50
2022-07-28T19:26:27.243Z,3.87
2022-07-28T19:31:11.062Z,3.87
2022-07-28T19:36:01.681Z,2.93
2022-07-28T19:40:45.558Z,3.87
2022-07-28T19:45:29.106Z,2.67
2022-07-28T19:50:13.358Z,2.03
2022-07-28T19:54:58.379Z,2.70
2022-07-28T19:59:41.912Z,3.60
2022-07-28T20:04:25.425Z,3.17
2022-07-28T20:09:09.099Z,3.13
2022-07-28T20:13:54.092Z,2.10
2022-07-28T20:18:37.529Z,4.07
2022-07-28T20:23:34.364Z,3.10
2022-07-28T20:28:18.005Z,3.60
2022-07-28T20:33:04.231Z,3.37
2022-07-28T20:37:47.754Z,1.60
2022-07-28T20:42:31.633Z,1.30
2022-07-28T20:47:15.347Z,2.20
2022-07-28T20:52:00.421Z,2.13
2022-07-28T20:56:43.888Z,1.93
2022-07-28T21:01:27.334Z,2.87
2022-07-28T21:06:10.975Z,2.47
2022-07-28T21:10:56.150Z,1.90
2022-07-28T21:15:39.621Z,2.20
2022-07-28T21:20:23.375Z,4.30
2022-07-28T21:25:08.525Z,3.53
2022-07-28T21:34:36.138Z,3.80
2022-07-28T21:39:19.820Z,1.90
2022-07-28T21:44:04.185Z,5.47
2022-07-28T21:48:49.458Z,1.30
2022-07-28T21:53:33.251Z,3.10
2022-07-28T21:58:17.059Z,3.87
2022-07-28T22:03:00.649Z,2.53
2022-07-28T22:07:45.648Z,4.80
2022-07-28T22:12:29.342Z,1.50
2022-07-28T22:17:13.104Z,3.20
2022-07-28T22:22:03.199Z,2.30
2022-07-28T22:26:48.261Z,2.20
2022-07-28T22:31:31.860Z,2.33
2022-07-28T22:36:15.572Z,3.00
2022-07-28T22:40:59.314Z,2.03
2022-07-28T22:45:49.799Z,3.30
2022-07-28T22:50:35.129Z,3.57
2022-07-28T22:55:18.676Z,2.37
2022-07-28T23:00:02.537Z,2.67
2022-07-28T23:04:51.871Z,1.63
2022-07-28T23:09:36.078Z,2.97
2022-07-28T23:14:19.623Z,2.77
2022-07-28T23:19:03.202Z,2.20
2022-07-28T23:23:48.366Z,3.17
2022-07-28T23:28:32.284Z,3.87
2022-07-28T23:33:56.441Z,3.73
2022-07-28T23:38:19.477Z,1.57
2022-07-28T23:43:04.333Z,3.60
2022-07-28T23:47:47.907Z,3.40
2022-07-28T23:52:31.546Z,2.13
2022-07-28T23:57:15.168Z,2.87
